createdAt,value
2019-04-28T00:01:43.328Z,33.83
2019-04-28T00:04:12.419Z,30.92
2019-04-28T00:06:41.741Z,26.85
2019-04-28T00:09:11.735Z,22.63
2019-04-28T00:11:41.714Z,29.93
2019-04-28T00:14:11.980Z,24.65
2019-04-28T00:16:41.352Z,31.12
2019-04-28T00:19:11.061Z,31.93
2019-04-28T00:21:41.714Z,30.17
2019-04-28T00:24:23.649Z,31.30
2019-04-28T00:27:01.658Z,29.60
2019-04-28T00:29:38.593Z,32.77
2019-04-28T00:32:01.744Z,30.62
2019-04-28T00:34:31.123Z,23.13
2019-04-28T00:37:01.474Z,31.52
2019-04-28T00:39:31.008Z,23.97
2019-04-28T00:42:03.090Z,24.25
2019-04-28T00:44:31.451Z,23.18
2019-04-28T00:47:01.170Z,29.03
2019-04-28T00:49:48.796Z,22.02
2019-04-28T00:52:18.869Z,26.00
2019-04-28T00:54:47.751Z,24.05
2019-04-28T00:57:17.264Z,22.90
2019-04-28T00:59:55.161Z,30.97
2019-04-28T01:02:27.022Z,24.02
2019-04-28T01:04:57.043Z,20.82
2019-04-28T01:07:25.819Z,27.85
2019-04-28T01:09:54.710Z,24.12
2019-04-28T01:12:23.391Z,24.17
2019-04-28T01:14:52.881Z,29.18
2019-04-28T01:17:29.606Z,22.37
2019-04-28T01:19:59.894Z,33.13
2019-04-28T01:22:30.070Z,32.23
2019-04-28T01:24:59.597Z,31.17
2019-04-28T01:27:30.473Z,23.30
2019-04-28T01:30:07.828Z,21.43
2019-04-28T01:32:33.347Z,27.17
2019-04-28T01:35:02.278Z,28.70
2019-04-28T01:37:31.344Z,23.38
2019-04-28T01:39:59.914Z,30.55
2019-04-28T01:42:30.254Z,36.33
2019-04-28T01:45:00.622Z,27.73
2019-04-28T01:47:30.551Z,28.60
2019-04-28T01:50:00.221Z,30.43
2019-04-28T01:52:30.362Z,32.97
2019-04-28T01:55:00.428Z,33.73
2019-04-28T01:57:30.353Z,37.30
2019-04-28T01:59:59.734Z,27.05
2019-04-28T02:02:30.070Z,27.95
2019-04-28T02:05:04.370Z,33.80
2019-04-28T02:07:40.585Z,30.70
2019-04-28T02:10:10.528Z,28.77
2019-04-28T02:12:40.315Z,27.50
2019-04-28T02:15:10.460Z,31.60
2019-04-28T02:17:40.224Z,30.83
2019-04-28T02:20:10.527Z,28.27
2019-04-28T02:22:41.238Z,26.20
2019-04-28T02:25:10.651Z,28.80
2019-04-28T02:27:40.084Z,33.98
2019-04-28T02:30:11.383Z,34.53
2019-04-28T02:32:40.890Z,37.67
2019-04-28T02:35:11.426Z,32.80
2019-04-28T02:37:40.743Z,29.07
2019-04-28T02:40:10.676Z,39.00
2019-04-28T02:42:40.926Z,34.08
2019-04-28T02:45:11.911Z,39.18
2019-04-28T02:47:41.977Z,30.13
2019-04-28T02:50:24.617Z,32.60
2019-04-28T02:52:56.278Z,28.32
2019-04-28T02:55:25.193Z,31.50
2019-04-28T02:57:55.079Z,34.85
2019-04-28T03:00:34.422Z,30.10
2019-04-28T03:03:03.299Z,32.27
2019-04-28T03:05:33.428Z,43.58
2019-04-28T03:08:02.824Z,41.27
2019-04-28T03:10:32.022Z,41.18
2019-04-28T03:13:01.436Z,38.00
2019-04-28T03:15:30.649Z,35.75
2019-04-28T03:18:01.846Z,41.23
2019-04-28T03:20:30.793Z,36.70
2019-04-28T03:23:00.980Z,32.98
2019-04-28T03:25:40.774Z,41.47
2019-04-28T03:28:16.264Z,30.70
2019-04-28T03:30:53.290Z,36.70
2019-04-28T03:33:25.321Z,41.10
2019-04-28T03:35:53.567Z,40.33
2019-04-28T03:38:22.014Z,35.70
2019-04-28T03:40:52.272Z,44.18
2019-04-28T03:43:21.367Z,33.40
2019-04-28T03:45:54.360Z,36.80
2019-04-28T03:48:23.143Z,30.93
2019-04-28T03:50:52.339Z,37.53
2019-04-28T03:53:21.368Z,36.48
2019-04-28T03:55:51.237Z,32.15
2019-04-28T03:58:24.637Z,36.40
2019-04-28T04:00:53.637Z,32.10
2019-04-28T04:03:22.627Z,39.97
2019-04-28T04:05:51.511Z,43.10
2019-04-28T04:08:21.090Z,39.30
2019-04-28T04:10:51.348Z,37.17
2019-04-28T04:13:24.424Z,28.50
2019-04-28T04:16:13.294Z,36.60
2019-04-28T04:18:43.810Z,40.37
2019-04-28T04:21:12.775Z,38.13
2019-04-28T04:23:41.596Z,44.80
2019-04-28T04:26:11.726Z,41.35
2019-04-28T04:28:41.604Z,35.07
2019-04-28T04:31:11.040Z,42.05
2019-04-28T04:33:41.011Z,33.58
2019-04-28T04:36:11.482Z,40.63
2019-04-28T04:38:46.057Z,35.75
2019-04-28T04:41:11.403Z,31.23
2019-04-28T04:43:41.501Z,24.32
2019-04-28T04:46:22.384Z,33.10
2019-04-28T04:48:51.413Z,38.15
2019-04-28T04:51:21.240Z,43.03
2019-04-28T04:53:51.090Z,37.88
2019-04-28T04:56:21.342Z,33.75
2019-04-28T04:58:50.928Z,37.63
2019-04-28T05:01:37.423Z,38.87
2019-04-28T05:04:20.238Z,34.50
2019-04-28T05:06:50.864Z,39.63
2019-04-28T05:09:19.691Z,33.40
2019-04-28T05:11:49.910Z,31.70
2019-04-28T05:14:19.818Z,38.33
2019-04-28T05:16:49.799Z,37.28
2019-04-28T05:19:24.734Z,31.80
2019-04-28T05:21:53.314Z,35.50
2019-04-28T05:24:30.394Z,40.15
2019-04-28T05:26:59.673Z,30.47
2019-04-28T05:29:32.140Z,25.37
2019-04-28T05:32:03.277Z,27.13
2019-04-28T05:34:31.792Z,33.17
2019-04-28T05:37:00.892Z,36.83
2019-04-28T05:39:29.849Z,23.70
2019-04-28T05:42:00.628Z,17.67
2019-04-28T05:44:29.943Z,28.83
2019-04-28T05:46:59.685Z,19.00
2019-04-28T05:49:49.798Z,20.88
2019-04-28T05:52:36.511Z,32.28
2019-04-28T05:55:10.730Z,21.52
2019-04-28T05:57:54.382Z,23.07
2019-04-28T06:00:49.899Z,20.27
2019-04-28T06:05:52.258Z,23.77
2019-04-28T06:08:22.995Z,24.57
2019-04-28T06:10:52.110Z,19.65
2019-04-28T06:13:20.667Z,24.13
2019-04-28T06:15:49.763Z,27.32
2019-04-28T06:18:20.671Z,20.83
2019-04-28T06:20:49.817Z,26.12
2019-04-28T06:23:18.696Z,23.13
2019-04-28T06:25:50.667Z,21.27
2019-04-28T06:28:22.536Z,30.00
2019-04-28T06:30:51.391Z,26.93
2019-04-28T06:33:19.974Z,15.13
2019-04-28T06:35:48.559Z,25.05
2019-04-28T06:38:17.339Z,25.33
2019-04-28T06:40:46.126Z,19.63
2019-04-28T06:43:16.254Z,22.83
2019-04-28T06:45:44.832Z,26.17
2019-04-28T06:48:13.722Z,19.57
2019-04-28T06:50:42.615Z,21.93
2019-04-28T06:53:11.699Z,19.60
2019-04-28T06:55:40.487Z,25.37
2019-04-28T06:58:09.378Z,23.90
2019-04-28T07:00:39.189Z,13.07
2019-04-28T07:03:12.981Z,21.70
2019-04-28T07:05:38.474Z,22.03
2019-04-28T07:08:07.291Z,19.92
2019-04-28T07:10:35.871Z,19.27
2019-04-28T07:13:05.478Z,24.30
2019-04-28T07:15:34.467Z,19.32
2019-04-28T07:18:04.133Z,16.82
2019-04-28T07:20:39.834Z,21.48
2019-04-28T07:23:09.843Z,22.37
2019-04-28T07:25:39.962Z,18.75
2019-04-28T07:28:08.950Z,18.97
2019-04-28T07:30:39.067Z,19.42
2019-04-28T07:33:09.005Z,19.20
2019-04-28T07:35:37.458Z,17.12
2019-04-28T07:38:06.858Z,17.98
2019-04-28T07:40:35.451Z,21.10
2019-04-28T07:43:04.330Z,16.80
2019-04-28T07:45:33.319Z,22.93
2019-04-28T07:48:05.391Z,21.42
2019-04-28T07:50:34.096Z,18.85
2019-04-28T07:53:10.630Z,14.20
2019-04-28T07:55:43.218Z,18.52
2019-04-28T07:58:12.008Z,21.40
2019-04-28T08:00:40.912Z,14.10
2019-04-28T08:03:09.685Z,11.75
2019-04-28T08:05:38.574Z,14.93
2019-04-28T08:08:07.586Z,18.45
2019-04-28T08:10:36.147Z,17.75
2019-04-28T08:13:23.823Z,12.74
2019-04-28T08:15:59.553Z,14.47
2019-04-28T08:18:31.480Z,16.70
2019-04-28T08:20:59.262Z,20.68
2019-04-28T08:23:28.261Z,10.43
2019-04-28T08:25:59.104Z,16.53
2019-04-28T08:28:29.729Z,18.90
2019-04-28T08:30:58.285Z,13.62
2019-04-28T08:33:28.459Z,19.45
2019-04-28T08:35:57.334Z,16.97
2019-04-28T08:38:26.000Z,20.25
2019-04-28T08:40:56.717Z,18.85
2019-04-28T08:43:25.835Z,17.20
2019-04-28T08:45:54.384Z,11.70
2019-04-28T08:48:24.610Z,21.13
2019-04-28T08:50:55.731Z,15.75
2019-04-28T08:53:24.431Z,14.30
2019-04-28T08:55:53.707Z,10.73
2019-04-28T08:58:22.628Z,12.73
2019-04-28T09:00:52.045Z,15.48
2019-04-28T09:03:23.578Z,13.50
2019-04-28T09:05:54.332Z,14.53
2019-04-28T09:08:23.354Z,16.67
2019-04-28T09:10:52.498Z,8.73
2019-04-28T09:13:23.523Z,13.50
2019-04-28T09:15:52.892Z,13.60
2019-04-28T09:18:25.843Z,11.30
2019-04-28T09:20:54.707Z,19.37
2019-04-28T09:23:25.368Z,14.05
2019-04-28T09:25:54.566Z,10.10
2019-04-28T09:28:23.659Z,16.17
2019-04-28T09:30:52.821Z,10.98
2019-04-28T09:33:22.248Z,13.45
2019-04-28T09:35:51.115Z,12.53
2019-04-28T09:38:20.004Z,17.30
2019-04-28T09:40:48.587Z,13.00
2019-04-28T09:43:19.236Z,9.78
2019-04-28T09:45:49.435Z,8.50
2019-04-28T09:48:18.527Z,11.53
2019-04-28T09:50:48.514Z,12.70
2019-04-28T09:53:17.634Z,7.37
2019-04-28T09:55:47.983Z,17.00
2019-04-28T09:58:17.446Z,9.15
2019-04-28T10:00:45.954Z,10.13
2019-04-28T10:03:15.040Z,7.75
2019-04-28T10:05:43.627Z,20.55
2019-04-28T10:08:12.508Z,9.37
2019-04-28T10:10:41.411Z,14.33
2019-04-28T10:13:10.296Z,17.10
2019-04-28T10:15:38.876Z,16.15
2019-04-28T10:18:09.116Z,12.67
2019-04-28T10:20:37.905Z,14.15
2019-04-28T10:23:06.463Z,11.30
2019-04-28T10:25:37.768Z,12.78
2019-04-28T10:28:06.686Z,13.27
2019-04-28T10:30:35.454Z,14.50
2019-04-28T10:33:05.662Z,17.36
2019-04-28T10:35:34.290Z,12.23
2019-04-28T10:38:03.201Z,12.15
2019-04-28T10:40:33.526Z,9.78
2019-04-28T10:43:02.799Z,12.75
2019-04-28T10:45:33.533Z,10.82
2019-04-28T10:48:02.756Z,8.10
2019-04-28T10:50:31.504Z,8.67
2019-04-28T10:53:00.098Z,13.55
2019-04-28T10:55:29.804Z,7.35
2019-04-28T10:58:00.229Z,8.40
2019-04-28T11:00:40.407Z,10.70
2019-04-28T11:03:10.400Z,10.48
2019-04-28T11:05:42.434Z,8.45
2019-04-28T11:08:23.331Z,15.13
2019-04-28T11:10:52.223Z,10.78
2019-04-28T11:13:22.672Z,7.35
2019-04-28T11:15:51.640Z,18.43
2019-04-28T11:18:22.701Z,11.73
2019-04-28T11:20:52.440Z,10.40
2019-04-28T11:23:23.227Z,8.88
2019-04-28T11:25:51.500Z,8.78
2019-04-28T11:28:21.751Z,13.07
2019-04-28T11:30:50.456Z,15.83
2019-04-28T11:33:29.699Z,7.70
2019-04-28T11:35:58.450Z,15.63
2019-04-28T11:38:27.312Z,16.85
2019-04-28T11:40:56.710Z,18.75
2019-04-28T11:43:25.398Z,13.03
2019-04-28T11:45:57.308Z,18.87
2019-04-28T11:48:26.150Z,9.60
2019-04-28T11:50:54.902Z,15.65
2019-04-28T11:53:23.734Z,12.73
2019-04-28T11:55:53.682Z,10.68
2019-04-28T11:58:24.167Z,8.10
2019-04-28T12:00:52.662Z,17.52
2019-04-28T12:03:23.384Z,12.93
2019-04-28T12:05:54.397Z,14.77
2019-04-28T12:08:23.985Z,18.73
2019-04-28T12:10:54.134Z,15.58
2019-04-28T12:13:28.110Z,14.47
2019-04-28T12:16:14.647Z,12.70
2019-04-28T12:19:00.354Z,9.90
2019-04-28T12:21:29.323Z,10.30
2019-04-28T12:23:58.338Z,12.50
2019-04-28T12:26:27.511Z,11.63
2019-04-28T12:28:56.503Z,11.65
2019-04-28T12:31:25.391Z,9.60
2019-04-28T12:33:53.974Z,11.18
2019-04-28T12:36:24.702Z,10.00
2019-04-28T12:38:53.698Z,18.55
2019-04-28T12:41:22.799Z,17.97
2019-04-28T12:43:52.007Z,13.30
2019-04-28T12:46:21.185Z,13.38
2019-04-28T12:48:53.246Z,10.80
2019-04-28T12:51:22.364Z,15.73
2019-04-28T12:53:52.460Z,13.22
2019-04-28T12:56:24.136Z,15.40
2019-04-28T12:58:54.229Z,12.53
2019-04-28T13:01:24.579Z,13.53
2019-04-28T13:04:12.309Z,14.58
2019-04-28T13:06:41.104Z,16.50
2019-04-28T13:09:09.787Z,12.73
2019-04-28T13:11:42.003Z,10.63
2019-04-28T13:14:10.514Z,15.63
2019-04-28T13:16:41.244Z,11.93
2019-04-28T13:19:10.334Z,14.27
2019-04-28T13:21:38.922Z,12.00
2019-04-28T13:24:08.015Z,10.28
2019-04-28T13:26:36.606Z,11.97
2019-04-28T13:29:06.222Z,16.07
2019-04-28T13:31:34.849Z,16.97
2019-04-28T13:34:05.870Z,9.93
2019-04-28T13:36:34.298Z,14.55
2019-04-28T13:39:04.627Z,11.12
2019-04-28T13:41:37.103Z,13.45
2019-04-28T13:44:07.644Z,12.98
2019-04-28T13:46:36.207Z,12.35
2019-04-28T13:49:07.245Z,12.05
2019-04-28T13:51:36.395Z,8.55
2019-04-28T13:54:07.578Z,10.80
2019-04-28T13:56:36.781Z,12.13
2019-04-28T13:59:08.556Z,11.86
2019-04-28T14:01:44.592Z,18.25
2019-04-28T14:04:15.157Z,16.30
2019-04-28T14:06:45.231Z,14.00
2019-04-28T14:09:16.168Z,16.55
2019-04-28T14:11:44.765Z,20.00
2019-04-28T14:14:14.085Z,13.70
2019-04-28T14:16:43.353Z,12.80
2019-04-28T14:19:12.359Z,18.30
2019-04-28T14:21:40.931Z,14.93
2019-04-28T14:24:09.512Z,15.93
2019-04-28T14:26:40.110Z,19.37
2019-04-28T14:29:08.558Z,16.45
2019-04-28T14:31:37.162Z,22.85
2019-04-28T14:34:05.894Z,17.42
2019-04-28T14:36:41.817Z,18.10
2019-04-28T14:39:08.668Z,18.80
2019-04-28T14:41:38.924Z,25.37
2019-04-28T14:44:09.021Z,14.73
2019-04-28T14:46:37.634Z,20.05
2019-04-28T14:49:06.694Z,15.93
2019-04-28T14:51:35.599Z,16.03
2019-04-28T14:54:05.599Z,17.43
2019-04-28T14:56:34.193Z,13.90
2019-04-28T14:59:04.931Z,14.47
2019-04-28T15:01:37.344Z,14.00
2019-04-28T15:04:07.820Z,19.10
2019-04-28T15:06:55.405Z,11.40
2019-04-28T15:09:19.642Z,13.77
2019-04-28T15:11:50.583Z,20.00
2019-04-28T15:14:19.371Z,14.27
2019-04-28T15:16:48.539Z,17.75
2019-04-28T15:19:18.710Z,13.53
2019-04-28T15:21:48.882Z,19.00
2019-04-28T15:24:18.082Z,12.53
2019-04-28T15:26:46.784Z,19.30
2019-04-28T15:29:15.649Z,15.08
2019-04-28T15:31:44.980Z,16.67
2019-04-28T15:34:13.529Z,17.57
2019-04-28T15:36:42.546Z,16.23
2019-04-28T15:39:12.344Z,14.70
2019-04-28T15:41:41.323Z,15.83
2019-04-28T15:44:10.033Z,15.93
2019-04-28T15:46:38.926Z,15.03
2019-04-28T15:49:07.792Z,13.55
2019-04-28T15:51:36.387Z,13.95
2019-04-28T15:54:05.776Z,12.28
2019-04-28T15:56:39.070Z,15.20
2019-04-28T15:59:08.079Z,10.13
2019-04-28T16:01:36.867Z,14.47
2019-04-28T16:04:06.982Z,11.38
2019-04-28T16:06:36.054Z,18.20
2019-04-28T16:09:08.737Z,17.25
2019-04-28T16:11:38.554Z,17.67
2019-04-28T16:14:07.251Z,20.10
2019-04-28T16:16:36.857Z,17.70
2019-04-28T16:19:07.362Z,14.35
2019-04-28T16:21:36.205Z,24.57
2019-04-28T16:24:07.126Z,21.72
2019-04-28T16:26:35.907Z,18.20
2019-04-28T16:29:05.553Z,16.07
2019-04-28T16:31:34.904Z,16.50
2019-04-28T16:34:03.986Z,20.10
2019-04-28T16:36:34.090Z,14.90
2019-04-28T16:39:02.689Z,11.60
2019-04-28T16:41:33.039Z,15.23
2019-04-28T16:44:02.506Z,10.80
2019-04-28T16:46:31.491Z,10.40
2019-04-28T16:49:00.282Z,12.35
2019-04-28T16:51:29.469Z,14.43
2019-04-28T16:53:58.183Z,17.20
2019-04-28T16:56:47.214Z,12.50
2019-04-28T16:59:17.772Z,11.23
2019-04-28T17:01:51.251Z,12.50
2019-04-28T17:04:21.699Z,15.05
2019-04-28T17:06:52.099Z,18.65
2019-04-28T17:09:21.796Z,15.87
2019-04-28T17:11:50.875Z,16.55
2019-04-28T17:14:19.920Z,8.15
2019-04-28T17:16:49.098Z,13.43
2019-04-28T17:19:18.175Z,14.18
2019-04-28T17:21:47.071Z,19.77
2019-04-28T17:24:17.631Z,11.50
2019-04-28T17:26:46.723Z,12.88
2019-04-28T17:29:15.503Z,19.03
2019-04-28T17:31:44.268Z,11.03
2019-04-28T17:34:13.311Z,13.38
2019-04-28T17:36:42.558Z,16.23
2019-04-28T17:39:19.142Z,15.47
2019-04-28T17:41:48.246Z,17.55
2019-04-28T17:44:17.456Z,11.08
2019-04-28T17:46:46.434Z,18.13
2019-04-28T17:49:15.090Z,19.47
2019-04-28T17:51:44.095Z,12.70
2019-04-28T17:54:13.282Z,22.40
2019-04-28T17:56:42.182Z,14.80
2019-04-28T17:59:12.314Z,22.40
2019-04-28T18:01:49.076Z,12.03
2019-04-28T18:04:25.529Z,15.77
2019-04-28T18:07:11.002Z,22.62
2019-04-28T18:09:40.210Z,15.70
2019-04-28T18:12:08.791Z,16.20
2019-04-28T18:14:38.495Z,14.13
2019-04-28T18:17:25.446Z,17.62
2019-04-28T18:19:54.598Z,19.30
2019-04-28T18:22:23.495Z,13.23
2019-04-28T18:24:52.404Z,19.02
2019-04-28T18:27:21.279Z,15.25
2019-04-28T18:29:51.609Z,18.42
2019-04-28T18:32:24.811Z,13.10
2019-04-28T18:35:10.774Z,21.02
2019-04-28T18:37:57.605Z,11.45
2019-04-28T18:40:28.133Z,24.77
2019-04-28T18:43:07.364Z,21.87
2019-04-28T18:45:36.439Z,18.02
2019-04-28T18:48:06.561Z,16.14
2019-04-28T18:50:35.876Z,17.80
2019-04-28T18:53:06.386Z,15.50
2019-04-28T18:55:35.270Z,22.63
2019-04-28T18:58:05.398Z,21.37
2019-04-28T19:00:37.654Z,19.85
2019-04-28T19:03:07.386Z,20.35
2019-04-28T19:05:38.100Z,20.75
2019-04-28T19:08:08.420Z,17.87
2019-04-28T19:10:41.815Z,17.73
2019-04-28T19:13:18.379Z,13.32
2019-04-28T19:16:07.135Z,14.47
2019-04-28T19:18:40.330Z,15.77
2019-04-28T19:21:08.914Z,18.45
2019-04-28T19:23:37.494Z,22.95
2019-04-28T19:26:08.332Z,14.53
2019-04-28T19:28:37.348Z,13.62
2019-04-28T19:31:06.653Z,12.73
2019-04-28T19:33:35.634Z,20.93
2019-04-28T19:36:05.828Z,16.05
2019-04-28T19:38:34.413Z,17.05
2019-04-28T19:41:03.298Z,22.07
2019-04-28T19:43:31.887Z,19.45
2019-04-28T19:46:02.514Z,18.00
2019-04-28T19:48:31.402Z,15.93
2019-04-28T19:51:00.292Z,14.23
2019-04-28T19:53:31.723Z,15.28
2019-04-28T19:56:03.906Z,15.40
2019-04-28T19:58:37.610Z,21.68
2019-04-28T20:01:07.830Z,12.23
2019-04-28T20:03:36.413Z,15.25
2019-04-28T20:06:06.218Z,20.80
2019-04-28T20:08:34.811Z,26.02
2019-04-28T20:11:03.691Z,24.10
2019-04-28T20:13:32.478Z,18.80
2019-04-28T20:16:01.367Z,20.53
2019-04-28T20:18:30.258Z,26.67
2019-04-28T20:20:59.154Z,18.67
2019-04-28T20:23:27.832Z,20.70
2019-04-28T20:25:56.414Z,21.25
2019-04-28T20:28:25.001Z,29.35
2019-04-28T20:30:54.094Z,24.65
2019-04-28T20:33:25.232Z,20.73
2019-04-28T20:35:58.120Z,26.90
2019-04-28T20:38:31.199Z,19.60
2019-04-28T20:41:10.126Z,22.48
2019-04-28T20:43:38.710Z,26.48
2019-04-28T20:46:07.290Z,30.88
2019-04-28T20:48:36.182Z,29.10
2019-04-28T20:51:06.915Z,30.82
2019-04-28T20:53:35.505Z,32.40
2019-04-28T20:56:05.514Z,30.27
2019-04-28T20:58:34.709Z,22.17
2019-04-28T21:01:03.415Z,22.60
2019-04-28T21:03:31.970Z,19.75
2019-04-28T21:06:01.606Z,21.20
2019-04-28T21:08:30.058Z,21.10
2019-04-28T21:10:58.642Z,20.88
2019-04-28T21:13:27.329Z,20.62
2019-04-28T21:15:56.648Z,16.62
2019-04-28T21:18:25.410Z,13.70
2019-04-28T21:20:54.502Z,19.50
2019-04-28T21:23:23.403Z,17.10
2019-04-28T21:25:52.599Z,17.32
2019-04-28T21:28:21.278Z,21.97
2019-04-28T21:30:51.428Z,18.95
2019-04-28T21:33:20.182Z,21.93
2019-04-28T21:35:48.967Z,17.60
2019-04-28T21:38:17.963Z,18.02
2019-04-28T21:40:46.599Z,16.75
2019-04-28T21:43:17.171Z,20.48
2019-04-28T21:46:02.984Z,24.57
2019-04-28T21:48:42.290Z,22.63
2019-04-28T21:51:12.445Z,29.23
2019-04-28T21:53:41.090Z,24.80
2019-04-28T21:56:10.342Z,25.62
2019-04-28T21:58:39.491Z,27.58
2019-04-28T22:01:09.191Z,29.40
2019-04-28T22:03:38.597Z,30.43
2019-04-28T22:06:07.183Z,25.57
2019-04-28T22:08:36.167Z,26.50
2019-04-28T22:11:06.806Z,25.24
2019-04-28T22:13:35.999Z,16.67
2019-04-28T22:16:06.020Z,14.25
2019-04-28T22:18:34.899Z,19.70
2019-04-28T22:21:03.482Z,18.90
2019-04-28T22:23:33.726Z,22.15
2019-04-28T22:26:02.491Z,16.73
2019-04-28T22:28:31.072Z,16.48
2019-04-28T22:31:00.062Z,19.87
2019-04-28T22:33:28.742Z,16.65
2019-04-28T22:35:57.335Z,18.75
2019-04-28T22:38:25.911Z,19.90
2019-04-28T22:40:54.494Z,15.80
2019-04-28T22:43:23.590Z,15.10
2019-04-28T22:45:52.581Z,17.23
2019-04-28T22:48:23.541Z,21.97
2019-04-28T22:50:53.328Z,18.77
2019-04-28T22:53:23.446Z,17.03
2019-04-28T22:56:12.224Z,21.27
2019-04-28T22:58:45.083Z,18.25
2019-04-28T23:01:15.206Z,17.30
2019-04-28T23:03:45.654Z,20.67
2019-04-28T23:06:14.744Z,19.67
2019-04-28T23:08:43.714Z,19.23
2019-04-28T23:11:12.603Z,16.80
2019-04-28T23:13:41.496Z,21.67
2019-04-28T23:16:10.196Z,18.80
2019-04-28T23:18:38.759Z,24.80
2019-04-28T23:21:08.875Z,22.70
2019-04-28T23:23:37.769Z,25.97
2019-04-28T23:26:07.270Z,31.85
2019-04-28T23:28:36.258Z,23.37
2019-04-28T23:31:06.478Z,21.17
2019-04-28T23:33:35.367Z,19.23
2019-04-28T23:36:03.958Z,16.62
2019-04-28T23:38:32.530Z,25.20
2019-04-28T23:41:02.756Z,15.78
2019-04-28T23:43:31.747Z,15.28
2019-04-28T23:46:00.838Z,17.57
2019-04-28T23:48:29.728Z,20.83
2019-04-28T23:51:09.270Z,17.17
2019-04-28T23:53:55.978Z,19.43
2019-04-28T23:56:24.867Z,15.55
2019-04-28T23:58:53.442Z,21.97
